createdAt,value
2023-01-29T00:00:23.674Z,14.60
2023-01-29T00:02:51.329Z,15.00
2023-01-29T00:05:27.785Z,16.90
2023-01-29T00:07:57.983Z,13.88
2023-01-29T00:10:26.706Z,15.95
2023-01-29T00:12:54.812Z,14.32
2023-01-29T00:15:22.525Z,14.75
2023-01-29T00:17:50.196Z,16.30
2023-01-29T00:20:18.747Z,15.65
2023-01-29T00:22:46.727Z,16.67
2023-01-29T00:25:15.697Z,14.27
2023-01-29T00:27:44.597Z,13.70
2023-01-29T00:30:15.013Z,15.45
2023-01-29T00:32:43.161Z,14.57
2023-01-29T00:35:11.411Z,15.13
2023-01-29T00:37:39.558Z,13.75
2023-01-29T00:40:08.207Z,15.10
2023-01-29T00:42:55.132Z,17.10
2023-01-29T00:45:22.900Z,15.93
2023-01-29T00:47:50.552Z,15.32
2023-01-29T00:50:18.815Z,15.50
2023-01-29T00:52:48.560Z,17.30
2023-01-29T00:55:16.421Z,15.75
2023-01-29T00:57:45.510Z,16.27
2023-01-29T01:00:16.994Z,16.30
2023-01-29T01:03:02.391Z,16.88
2023-01-29T01:05:30.246Z,15.27
2023-01-29T01:07:59.464Z,17.50
2023-01-29T01:10:28.298Z,19.48
2023-01-29T01:12:59.411Z,18.70
2023-01-29T01:17:55.868Z,17.85
2023-01-29T01:20:24.009Z,18.23
2023-01-29T01:22:54.012Z,18.85
2023-01-29T01:25:21.860Z,19.52
2023-01-29T01:27:53.597Z,18.80
2023-01-29T01:30:21.659Z,19.58
2023-01-29T01:32:49.307Z,19.15
2023-01-29T01:35:18.901Z,21.13
2023-01-29T01:37:46.533Z,20.42
2023-01-29T01:40:18.392Z,19.33
2023-01-29T01:42:48.564Z,21.13
2023-01-29T01:45:21.358Z,20.10
2023-01-29T01:47:52.382Z,19.73
2023-01-29T01:50:25.340Z,18.50
2023-01-29T01:52:56.345Z,18.63
2023-01-29T01:55:29.995Z,20.27
2023-01-29T01:58:04.307Z,23.27
2023-01-29T02:00:35.535Z,22.30
2023-01-29T02:03:24.696Z,21.52
2023-01-29T02:06:13.584Z,21.95
2023-01-29T02:09:05.527Z,19.77
2023-01-29T02:11:37.109Z,22.42
2023-01-29T02:14:04.730Z,20.80
2023-01-29T02:16:34.901Z,21.45
2023-01-29T02:19:06.201Z,22.23
2023-01-29T02:22:05.063Z,21.67
2023-01-29T02:25:00.429Z,22.58
2023-01-29T02:27:39.773Z,22.20
2023-01-29T02:30:18.281Z,22.75
2023-01-29T02:32:58.297Z,23.17
2023-01-29T02:35:32.082Z,21.83
2023-01-29T02:38:13.760Z,21.38
2023-01-29T02:40:46.511Z,23.48
2023-01-29T02:43:28.668Z,24.05
2023-01-29T02:46:03.916Z,22.63
2023-01-29T02:48:40.096Z,22.40
2023-01-29T02:51:12.193Z,25.05
2023-01-29T02:53:50.318Z,23.98
2023-01-29T02:56:31.446Z,23.60
2023-01-29T02:59:06.340Z,24.63
2023-01-29T03:01:41.726Z,24.35
2023-01-29T03:04:15.063Z,23.83
2023-01-29T03:06:53.106Z,24.15
2023-01-29T03:09:27.757Z,22.98
2023-01-29T03:12:19.869Z,26.17
2023-01-29T03:15:10.095Z,23.90
2023-01-29T03:17:46.371Z,24.15
2023-01-29T03:20:18.592Z,22.70
2023-01-29T03:22:53.661Z,22.80
2023-01-29T03:25:43.173Z,24.45
2023-01-29T03:28:31.393Z,21.98
2023-01-29T03:31:21.569Z,24.58
2023-01-29T03:34:04.200Z,24.45
2023-01-29T03:39:06.738Z,22.98
2023-01-29T03:41:39.342Z,22.92
2023-01-29T03:44:13.766Z,24.38
2023-01-29T03:46:51.520Z,25.15
2023-01-29T03:49:30.896Z,24.58
2023-01-29T03:52:06.076Z,23.77
2023-01-29T03:54:45.636Z,26.17
2023-01-29T03:57:18.262Z,22.10
2023-01-29T03:59:52.929Z,22.48
2023-01-29T04:02:52.642Z,25.17
2023-01-29T04:05:29.005Z,23.83
2023-01-29T04:08:17.882Z,22.38
2023-01-29T04:10:52.041Z,24.40
2023-01-29T04:13:21.349Z,21.95
2023-01-29T04:15:56.791Z,24.73
2023-01-29T04:18:45.241Z,23.27
2023-01-29T04:21:14.636Z,25.67
2023-01-29T04:23:42.560Z,25.55
2023-01-29T04:26:38.835Z,24.48
2023-01-29T04:29:23.827Z,24.10
2023-01-29T04:32:04.583Z,25.50
2023-01-29T04:34:42.614Z,22.17
2023-01-29T04:37:16.591Z,22.15
2023-01-29T04:39:50.095Z,24.63
2023-01-29T04:42:31.247Z,23.58
2023-01-29T04:45:04.483Z,22.02
2023-01-29T04:47:41.481Z,24.23
2023-01-29T04:50:16.643Z,20.48
2023-01-29T04:52:54.437Z,20.70
2023-01-29T04:55:30.860Z,25.58
2023-01-29T04:58:07.613Z,22.88
2023-01-29T05:00:39.447Z,23.60
2023-01-29T05:03:11.520Z,23.15
2023-01-29T05:05:42.715Z,23.77
2023-01-29T05:08:18.178Z,20.85
2023-01-29T05:10:48.241Z,23.25
2023-01-29T05:13:16.867Z,23.95
2023-01-29T05:15:48.760Z,24.73
2023-01-29T05:18:16.518Z,24.40
2023-01-29T05:20:45.444Z,24.02
2023-01-29T05:23:19.268Z,25.52
2023-01-29T05:25:48.050Z,24.45
2023-01-29T05:28:17.280Z,24.25
2023-01-29T05:30:46.976Z,24.45
2023-01-29T05:33:16.761Z,23.38
2023-01-29T05:35:44.464Z,24.73
2023-01-29T05:38:12.512Z,23.23
2023-01-29T05:40:42.117Z,22.52
2023-01-29T05:43:18.677Z,23.90
2023-01-29T05:48:20.867Z,24.27
2023-01-29T05:50:48.609Z,23.38
2023-01-29T05:53:16.217Z,26.08
2023-01-29T05:55:46.800Z,26.02
2023-01-29T05:58:15.051Z,24.77
2023-01-29T06:00:43.357Z,25.77
2023-01-29T06:03:11.043Z,25.85
2023-01-29T06:05:39.123Z,25.20
2023-01-29T06:08:08.013Z,27.27
2023-01-29T06:10:35.742Z,26.70
2023-01-29T06:13:05.093Z,26.20
2023-01-29T06:15:32.700Z,24.13
2023-01-29T06:18:00.357Z,26.23
2023-01-29T06:20:29.634Z,22.83
2023-01-29T06:22:57.312Z,26.08
2023-01-29T06:25:26.553Z,24.95
2023-01-29T06:27:54.181Z,23.95
2023-01-29T06:30:25.159Z,23.83
2023-01-29T06:32:56.916Z,24.27
2023-01-29T06:35:24.578Z,24.38
2023-01-29T06:37:52.198Z,21.63
2023-01-29T06:40:20.176Z,25.90
2023-01-29T06:42:47.808Z,24.45
2023-01-29T06:45:15.785Z,23.40
2023-01-29T06:47:44.821Z,24.08
2023-01-29T06:50:13.037Z,23.45
2023-01-29T06:52:40.636Z,25.60
2023-01-29T06:55:09.246Z,22.58
2023-01-29T06:57:37.076Z,25.42
2023-01-29T07:00:06.294Z,27.27
2023-01-29T07:02:33.972Z,25.10
2023-01-29T07:05:02.959Z,25.67
2023-01-29T07:07:30.668Z,24.83
2023-01-29T07:09:58.295Z,27.30
2023-01-29T07:12:25.994Z,24.98
2023-01-29T07:14:53.617Z,23.33
2023-01-29T07:17:21.615Z,26.52
2023-01-29T07:19:49.217Z,23.67
2023-01-29T07:22:18.192Z,27.02
2023-01-29T07:24:45.867Z,27.60
2023-01-29T07:27:13.590Z,27.15
2023-01-29T07:29:41.228Z,24.08
2023-01-29T07:32:08.916Z,26.63
2023-01-29T07:34:36.533Z,24.98
2023-01-29T07:37:05.972Z,25.27
2023-01-29T07:39:34.917Z,27.48
2023-01-29T07:42:02.808Z,28.08
2023-01-29T07:44:30.429Z,24.33
2023-01-29T07:46:58.084Z,24.98
2023-01-29T07:49:25.671Z,23.92
2023-01-29T07:51:53.268Z,22.67
2023-01-29T07:54:21.064Z,27.35
2023-01-29T07:56:50.091Z,27.95
2023-01-29T07:59:17.724Z,25.98
2023-01-29T08:01:45.444Z,26.15
2023-01-29T08:04:13.073Z,26.83
2023-01-29T08:06:40.728Z,26.25
2023-01-29T08:09:08.787Z,27.35
2023-01-29T08:11:36.425Z,27.63
2023-01-29T08:14:05.368Z,26.67
2023-01-29T08:16:33.100Z,24.58
2023-01-29T08:19:02.271Z,24.38
2023-01-29T08:21:29.912Z,25.83
2023-01-29T08:23:57.756Z,26.65
2023-01-29T08:26:26.192Z,26.60
2023-01-29T08:28:54.194Z,26.85
2023-01-29T08:31:23.212Z,25.83
2023-01-29T08:33:51.008Z,26.60
2023-01-29T08:36:18.671Z,27.73
2023-01-29T08:38:46.393Z,27.48
2023-01-29T08:41:14.025Z,26.65
2023-01-29T08:43:41.662Z,26.23
2023-01-29T08:46:09.636Z,26.70
2023-01-29T08:48:38.759Z,25.55
2023-01-29T08:51:06.996Z,25.85
2023-01-29T08:53:34.605Z,27.52
2023-01-29T08:56:02.615Z,27.92
2023-01-29T08:58:30.240Z,27.48
2023-01-29T09:00:58.031Z,27.00
2023-01-29T09:03:25.767Z,25.38
2023-01-29T09:05:54.860Z,26.77
2023-01-29T09:08:22.687Z,25.30
2023-01-29T09:10:50.364Z,26.70
2023-01-29T09:13:18.015Z,28.05
2023-01-29T09:15:45.636Z,25.40
2023-01-29T09:18:13.327Z,24.55
2023-01-29T09:20:40.959Z,25.92
2023-01-29T09:23:11.287Z,27.25
2023-01-29T09:25:39.427Z,25.58
2023-01-29T09:28:07.218Z,26.73
2023-01-29T09:30:37.673Z,24.40
2023-01-29T09:33:05.739Z,26.20
2023-01-29T09:35:33.559Z,25.55
2023-01-29T09:38:01.412Z,25.05
2023-01-29T09:40:35.865Z,26.30
2023-01-29T09:43:07.705Z,26.90
2023-01-29T09:45:37.176Z,26.08
2023-01-29T09:48:06.683Z,27.70
2023-01-29T09:50:39.956Z,26.35
2023-01-29T09:53:17.827Z,26.63
2023-01-29T09:55:51.520Z,27.55
2023-01-29T09:58:23.834Z,27.88
2023-01-29T10:00:58.232Z,25.20
2023-01-29T10:03:56.151Z,28.38
2023-01-29T10:06:33.193Z,26.73
2023-01-29T10:09:48.832Z,26.33
2023-01-29T10:15:01.414Z,22.65
2023-01-29T10:17:49.531Z,23.88
2023-01-29T10:20:44.144Z,26.70
2023-01-29T10:23:20.508Z,25.25
2023-01-29T10:25:49.092Z,24.05
2023-01-29T10:28:21.079Z,27.23
2023-01-29T10:30:51.237Z,25.92
2023-01-29T10:33:25.934Z,26.65
2023-01-29T10:35:58.132Z,24.83
2023-01-29T10:38:36.235Z,27.08
2023-01-29T10:41:18.957Z,23.42
2023-01-29T10:43:55.815Z,23.42
2023-01-29T10:46:32.866Z,25.38
2023-01-29T10:49:09.615Z,25.25
2023-01-29T10:51:51.610Z,23.00
2023-01-29T10:54:38.302Z,23.35
2023-01-29T10:57:15.957Z,25.80
2023-01-29T11:00:12.779Z,24.83
2023-01-29T11:02:45.244Z,22.02
2023-01-29T11:05:21.578Z,21.90
2023-01-29T11:07:56.118Z,21.92
2023-01-29T11:10:25.748Z,23.08
2023-01-29T11:12:54.442Z,24.02
2023-01-29T11:15:27.540Z,22.35
2023-01-29T11:18:03.402Z,24.23
2023-01-29T11:20:32.778Z,24.00
2023-01-29T11:23:00.495Z,21.75
2023-01-29T11:25:29.722Z,22.92
2023-01-29T11:28:00.492Z,23.77
2023-01-29T11:30:31.729Z,22.60
2023-01-29T11:33:08.547Z,22.73
2023-01-29T11:35:37.391Z,21.42
2023-01-29T11:38:10.435Z,23.45
2023-01-29T11:40:40.726Z,30.55
2023-01-29T11:43:20.832Z,24.00
2023-01-29T11:45:51.487Z,21.13
2023-01-29T11:48:21.693Z,21.15
2023-01-29T11:50:55.263Z,21.92
2023-01-29T11:53:27.973Z,22.00
2023-01-29T11:55:56.816Z,21.30
2023-01-29T11:58:29.272Z,22.58
2023-01-29T12:01:00.836Z,22.10
2023-01-29T12:03:36.197Z,23.00
2023-01-29T12:06:06.835Z,21.45
2023-01-29T12:08:38.153Z,20.13
2023-01-29T12:11:10.511Z,20.40
2023-01-29T12:13:39.036Z,21.08
2023-01-29T12:16:16.629Z,20.38
2023-01-29T12:18:47.849Z,21.13
2023-01-29T12:21:21.217Z,19.95
2023-01-29T12:23:55.991Z,20.70
2023-01-29T12:26:29.272Z,20.48
2023-01-29T12:29:12.909Z,19.13
2023-01-29T12:31:47.592Z,19.48
2023-01-29T12:34:21.394Z,20.65
2023-01-29T12:36:53.824Z,18.77
2023-01-29T12:39:22.212Z,16.70
2023-01-29T12:41:57.876Z,17.60
2023-01-29T12:44:34.424Z,18.93
2023-01-29T12:47:07.900Z,21.65
2023-01-29T12:49:40.529Z,20.70
2023-01-29T12:52:13.399Z,19.95
2023-01-29T12:54:45.930Z,19.10
2023-01-29T12:57:22.462Z,17.73
2023-01-29T12:59:56.502Z,21.83
2023-01-29T13:02:33.561Z,20.27
2023-01-29T13:05:06.376Z,19.48
2023-01-29T13:07:39.956Z,19.40
2023-01-29T13:10:14.888Z,17.92
2023-01-29T13:12:53.367Z,19.38
2023-01-29T13:15:25.610Z,18.35
2023-01-29T13:18:02.005Z,19.88
2023-01-29T13:23:05.525Z,16.38
2023-01-29T13:25:33.138Z,19.33
2023-01-29T13:28:01.495Z,17.60
2023-01-29T13:30:31.644Z,19.48
2023-01-29T13:33:10.257Z,20.77
2023-01-29T13:35:42.111Z,19.05
2023-01-29T13:38:24.652Z,20.35
2023-01-29T13:40:53.653Z,19.45
2023-01-29T13:43:23.951Z,19.58
2023-01-29T13:45:54.126Z,19.67
2023-01-29T13:48:27.447Z,19.35
2023-01-29T13:50:57.349Z,16.83
2023-01-29T13:53:28.346Z,17.42
2023-01-29T13:55:56.375Z,18.05
2023-01-29T13:58:54.292Z,17.48
2023-01-29T14:01:55.634Z,19.35
2023-01-29T14:04:28.368Z,18.92
2023-01-29T14:06:56.626Z,19.50
2023-01-29T14:10:02.968Z,18.88
2023-01-29T14:12:38.160Z,19.25
2023-01-29T14:15:20.678Z,17.67
2023-01-29T14:17:59.583Z,19.50
2023-01-29T14:20:45.088Z,20.80
2023-01-29T14:23:25.036Z,19.27
2023-01-29T14:25:52.801Z,22.45
2023-01-29T14:28:24.892Z,20.15
2023-01-29T14:30:53.650Z,19.83
2023-01-29T14:33:28.789Z,18.95
2023-01-29T14:36:00.665Z,19.98
2023-01-29T14:38:30.401Z,18.77
2023-01-29T14:41:16.165Z,17.73
2023-01-29T14:43:43.809Z,19.73
2023-01-29T14:46:48.040Z,21.65
2023-01-29T14:49:52.061Z,19.15
2023-01-29T14:52:24.080Z,17.95
2023-01-29T14:54:53.728Z,19.33
2023-01-29T14:57:21.798Z,19.58
2023-01-29T14:59:55.149Z,20.58
2023-01-29T15:02:27.667Z,20.63
2023-01-29T15:04:59.584Z,21.92
2023-01-29T15:07:36.317Z,20.15
2023-01-29T15:10:23.467Z,19.13
2023-01-29T15:12:58.123Z,20.65
2023-01-29T15:15:34.950Z,21.10
2023-01-29T15:18:06.735Z,21.20
2023-01-29T15:20:36.495Z,21.15
2023-01-29T15:23:24.558Z,19.10
2023-01-29T15:25:54.017Z,18.65
2023-01-29T15:28:22.641Z,20.75
2023-01-29T15:30:55.035Z,19.15
2023-01-29T15:33:22.937Z,19.10
2023-01-29T15:36:06.718Z,18.50
2023-01-29T15:38:36.890Z,17.98
2023-01-29T15:41:17.060Z,20.38
2023-01-29T15:43:46.603Z,21.33
2023-01-29T15:46:21.993Z,20.15
2023-01-29T15:48:50.880Z,18.85
2023-01-29T15:51:21.349Z,18.75
2023-01-29T15:53:53.776Z,18.90
2023-01-29T15:56:27.747Z,18.10
2023-01-29T15:58:58.161Z,19.45
2023-01-29T16:01:27.555Z,17.65
2023-01-29T16:03:57.782Z,19.50
2023-01-29T16:06:27.034Z,18.48
2023-01-29T16:08:56.659Z,18.38
2023-01-29T16:11:24.478Z,18.10
2023-01-29T16:13:53.210Z,19.33
2023-01-29T16:16:24.952Z,17.80
2023-01-29T16:18:59.832Z,20.77
2023-01-29T16:21:30.462Z,20.20
2023-01-29T16:24:01.949Z,19.23
2023-01-29T16:26:32.912Z,17.67
2023-01-29T16:29:05.370Z,19.35
2023-01-29T16:31:34.014Z,16.35
2023-01-29T16:34:07.994Z,19.92
2023-01-29T16:36:35.791Z,17.38
2023-01-29T16:39:14.300Z,18.77
2023-01-29T16:41:41.951Z,19.67
2023-01-29T16:44:33.763Z,18.17
2023-01-29T16:47:12.669Z,19.23
2023-01-29T16:49:45.316Z,20.33
2023-01-29T16:52:21.551Z,19.95
2023-01-29T16:54:50.955Z,19.55
2023-01-29T16:57:23.028Z,21.13
2023-01-29T16:59:55.110Z,19.25
2023-01-29T17:02:26.934Z,20.60
2023-01-29T17:04:59.417Z,19.40
2023-01-29T17:07:28.366Z,20.23
2023-01-29T17:10:00.921Z,20.10
2023-01-29T17:12:30.904Z,20.10
2023-01-29T17:15:00.540Z,17.85
2023-01-29T17:17:33.488Z,18.08
2023-01-29T17:20:12.336Z,19.38
2023-01-29T17:22:40.063Z,20.02
2023-01-29T17:25:13.933Z,19.65
2023-01-29T17:27:44.115Z,18.45
2023-01-29T17:30:18.423Z,19.30
2023-01-29T17:32:47.431Z,19.17
2023-01-29T17:35:17.141Z,18.33
2023-01-29T17:37:47.547Z,19.70
2023-01-29T17:40:32.193Z,18.45
2023-01-29T17:43:02.011Z,18.95
2023-01-29T17:45:29.856Z,19.23
2023-01-29T17:48:00.071Z,20.70
2023-01-29T17:50:31.182Z,19.70
2023-01-29T17:52:58.989Z,18.20
2023-01-29T17:55:27.990Z,18.42
2023-01-29T17:57:55.634Z,21.90
2023-01-29T18:00:33.049Z,21.40
2023-01-29T18:03:02.350Z,20.40
2023-01-29T18:05:32.667Z,29.65
2023-01-29T18:08:00.297Z,19.75
2023-01-29T18:10:32.281Z,21.92
2023-01-29T18:12:59.977Z,18.33
2023-01-29T18:15:27.611Z,20.13
2023-01-29T18:17:56.366Z,18.42
2023-01-29T18:20:25.806Z,18.58
2023-01-29T18:22:54.112Z,20.88
2023-01-29T18:25:24.090Z,21.70
2023-01-29T18:27:55.112Z,20.23
2023-01-29T18:30:22.805Z,21.85
2023-01-29T18:32:50.751Z,21.00
2023-01-29T18:35:24.762Z,22.25
2023-01-29T18:37:57.179Z,20.45
2023-01-29T18:40:25.542Z,22.33
2023-01-29T18:42:54.500Z,21.50
2023-01-29T18:45:24.649Z,22.40
2023-01-29T18:48:01.036Z,21.95
2023-01-29T18:50:29.080Z,22.23
2023-01-29T18:52:56.817Z,21.88
2023-01-29T18:55:26.420Z,23.55
2023-01-29T18:58:27.787Z,22.17
2023-01-29T19:00:43.689Z,21.85
2023-01-29T19:03:12.055Z,23.05
2023-01-29T19:05:39.835Z,20.80
2023-01-29T19:08:07.432Z,19.13
2023-01-29T19:10:35.682Z,18.65
2023-01-29T19:13:06.550Z,20.30
2023-01-29T19:15:34.372Z,20.38
2023-01-29T19:18:02.611Z,20.23
2023-01-29T19:20:32.947Z,20.80
2023-01-29T19:23:00.572Z,21.08
2023-01-29T19:25:28.204Z,21.40
2023-01-29T19:28:00.636Z,21.88
2023-01-29T19:30:31.042Z,21.45
2023-01-29T19:32:58.709Z,20.80
2023-01-29T19:35:26.562Z,24.55
2023-01-29T19:38:00.039Z,20.50
2023-01-29T19:40:27.815Z,20.88
2023-01-29T19:42:56.388Z,23.00
2023-01-29T19:45:49.060Z,21.10
2023-01-29T19:48:15.784Z,20.98
2023-01-29T19:50:52.459Z,23.40
2023-01-29T19:53:20.221Z,22.80
2023-01-29T19:55:48.220Z,22.45
2023-01-29T19:58:15.823Z,21.05
2023-01-29T20:00:43.517Z,22.65
2023-01-29T20:03:15.309Z,21.58
2023-01-29T20:05:42.908Z,22.92
2023-01-29T20:08:12.457Z,20.35
2023-01-29T20:10:40.106Z,21.15
2023-01-29T20:13:09.429Z,22.23
2023-01-29T20:15:37.072Z,22.17
2023-01-29T20:18:11.686Z,19.17
2023-01-29T20:20:49.962Z,21.95
2023-01-29T20:23:35.281Z,20.88
2023-01-29T20:26:05.609Z,20.20
2023-01-29T20:28:36.118Z,20.98
2023-01-29T20:31:09.802Z,18.55
2023-01-29T20:33:39.504Z,20.20
2023-01-29T20:36:11.269Z,21.95
2023-01-29T20:38:39.200Z,19.45
2023-01-29T20:41:08.684Z,21.17
2023-01-29T20:43:36.867Z,20.50
2023-01-29T20:46:05.201Z,20.13
2023-01-29T20:48:33.519Z,18.70
2023-01-29T20:51:09.301Z,19.80
2023-01-29T20:54:19.784Z,18.95
2023-01-29T20:56:47.505Z,21.70
2023-01-29T20:59:15.435Z,19.15
2023-01-29T21:01:45.488Z,20.27
2023-01-29T21:04:14.880Z,19.90
2023-01-29T21:06:42.491Z,19.23
2023-01-29T21:09:10.106Z,20.52
2023-01-29T21:11:44.828Z,19.88
2023-01-29T21:14:12.591Z,19.80
2023-01-29T21:16:40.312Z,19.50
2023-01-29T21:19:07.969Z,19.58
2023-01-29T21:21:35.722Z,17.02
2023-01-29T21:24:05.748Z,18.45
2023-01-29T21:26:38.099Z,19.63
2023-01-29T21:29:07.408Z,18.15
2023-01-29T21:31:35.086Z,18.63
2023-01-29T21:34:04.617Z,20.30
2023-01-29T21:36:32.290Z,17.20
2023-01-29T21:39:00.211Z,17.08
2023-01-29T21:41:42.092Z,17.05
2023-01-29T21:44:11.583Z,16.45
2023-01-29T21:46:39.271Z,18.05
2023-01-29T21:49:06.993Z,15.93
2023-01-29T21:51:38.652Z,17.33
2023-01-29T21:54:09.002Z,17.65
2023-01-29T21:56:36.611Z,18.52
2023-01-29T21:59:04.312Z,15.68
2023-01-29T22:01:37.883Z,16.42
2023-01-29T22:04:09.663Z,16.13
2023-01-29T22:06:37.415Z,16.92
2023-01-29T22:09:05.161Z,16.55
2023-01-29T22:11:33.031Z,17.42
2023-01-29T22:14:00.716Z,17.42
2023-01-29T22:16:29.761Z,17.70
2023-01-29T22:18:58.997Z,17.77
2023-01-29T22:21:28.493Z,18.15
2023-01-29T22:23:56.194Z,16.85
2023-01-29T22:26:23.954Z,17.08
2023-01-29T22:28:51.577Z,17.70
2023-01-29T22:31:19.259Z,17.05
2023-01-29T22:33:48.859Z,17.60
2023-01-29T22:36:17.865Z,17.40
2023-01-29T22:38:45.936Z,17.38
2023-01-29T22:41:14.466Z,16.52
2023-01-29T22:43:43.819Z,16.45
2023-01-29T22:46:14.275Z,19.05
2023-01-29T22:48:44.690Z,18.58
2023-01-29T22:51:13.825Z,19.13
2023-01-29T22:53:44.553Z,18.48
2023-01-29T22:56:12.881Z,17.73
2023-01-29T22:58:41.056Z,19.35
2023-01-29T23:01:09.046Z,18.85
2023-01-29T23:03:38.499Z,19.60
2023-01-29T23:06:06.277Z,18.33
2023-01-29T23:08:34.436Z,20.17
2023-01-29T23:11:14.963Z,18.92
2023-01-29T23:13:44.234Z,18.95
2023-01-29T23:16:12.412Z,19.48
2023-01-29T23:18:40.604Z,18.77
2023-01-29T23:21:08.482Z,19.50
2023-01-29T23:23:37.364Z,19.25
2023-01-29T23:26:28.852Z,21.00
2023-01-29T23:28:56.518Z,19.08
2023-01-29T23:31:24.197Z,20.90
2023-01-29T23:33:51.978Z,18.58
2023-01-29T23:36:19.642Z,18.85
2023-01-29T23:38:47.290Z,20.77
2023-01-29T23:41:16.260Z,20.85
2023-01-29T23:43:43.900Z,19.95
2023-01-29T23:46:11.548Z,20.70
2023-01-29T23:48:41.189Z,20.88
2023-01-29T23:51:08.859Z,23.13
2023-01-29T23:53:36.439Z,20.08
2023-01-29T23:56:05.817Z,22.02
2023-01-29T23:58:35.090Z,21.80
